Time;durP1;ratioP1;P1;durP2;ratioP2;P2;SDS_P1;SDS_P2;PMS_P1;PMS_P2;Temp;Humidity;BMP_temperature;BMP_pressure;BME280_temperature;BME280_humidity;BME280_pressure;Samples;Min_cycle;Max_cycle;Signal;HPM_P1;HPM_P2
2022/08/19 00:00:09;;;;;;;11.75;8.90;;;;;;;17.48;100.00;95756.25;4998710;28;20527;-80
2022/08/19 00:02:42;;;;;;;12.93;8.43;;;;;;;17.42;100.00;95755.00;4998315;28;20039;-81
2022/08/19 00:05:10;;;;;;;13.13;9.20;;;;;;;17.32;100.00;95766.69;4998740;28;20046;-80
2022/08/19 00:07:38;;;;;;;11.70;8.52;;;;;;;17.50;100.00;95763.38;4997694;28;20125;-81
2022/08/19 00:10:07;;;;;;;11.90;8.80;;;;;;;17.64;100.00;95766.25;4996051;28;20070;-80
2022/08/19 00:12:33;;;;;;;11.77;8.60;;;;;;;17.76;100.00;95774.28;4996102;28;20048;-81
2022/08/19 00:15:00;;;;;;;14.27;9.02;;;;;;;17.81;100.00;95778.66;4996484;28;20387;-82
2022/08/19 00:17:27;;;;;;;12.18;8.90;;;;;;;17.78;100.00;95771.94;4994655;28;20081;-80
2022/08/19 00:19:53;;;;;;;12.80;8.57;;;;;;;17.76;100.00;95762.47;4993292;28;20081;-80
2022/08/19 00:22:20;;;;;;;11.15;8.38;;;;;;;17.85;100.00;95760.19;4990384;28;20042;-80
2022/08/19 00:24:48;;;;;;;12.55;8.00;;;;;;;17.98;99.35;95759.53;4992906;28;20047;-82
2022/08/19 00:27:14;;;;;;;12.15;8.68;;;;;;;17.83;100.00;95746.03;4992675;28;20053;-81
2022/08/19 00:29:41;;;;;;;11.77;8.43;;;;;;;17.80;100.00;95736.56;4993437;28;20081;-79
2022/08/19 00:32:08;;;;;;;11.13;8.38;;;;;;;17.86;99.22;95723.25;4992207;28;20676;-79
2022/08/19 00:34:35;;;;;;;12.80;8.45;;;;;;;17.86;99.86;95724.03;4994844;28;20035;-79
2022/08/19 00:37:01;;;;;;;12.50;8.43;;;;;;;17.89;98.73;95715.00;4993164;28;20096;-80
2022/08/19 00:39:28;;;;;;;11.27;8.32;;;;;;;18.00;99.00;95718.63;4993594;28;20046;-81
2022/08/19 00:41:57;;;;;;;12.35;8.48;;;;;;;17.99;98.89;95721.75;4992744;28;20043;-81
2022/08/19 00:44:25;;;;;;;11.82;8.48;;;;;;;18.04;98.15;95721.41;5000585;28;20046;-80
2022/08/19 00:46:54;;;;;;;10.65;8.07;;;;;;;17.94;98.48;95720.16;4998489;28;20081;-81
2022/08/19 00:49:26;;;;;;;11.50;8.07;;;;;;;17.97;98.37;95719.41;4996741;28;20042;-80
2022/08/19 00:51:59;;;;;;;9.18;7.50;;;;;;;17.96;98.53;95717.03;4998089;28;20058;-81
2022/08/19 00:54:26;;;;;;;12.67;8.23;;;;;;;18.04;98.36;95715.09;4987230;28;20042;-81
2022/08/19 00:56:53;;;;;;;10.57;8.18;;;;;;;18.09;98.71;95709.25;4997232;28;20089;-80
2022/08/19 00:59:22;;;;;;;12.68;8.57;;;;;;;17.94;98.81;95711.09;4995886;28;20050;-82
2022/08/19 01:01:48;;;;;;;12.18;8.50;;;;;;;18.08;98.67;95702.16;4998796;28;20520;-80
2022/08/19 01:04:16;;;;;;;11.15;8.15;;;;;;;18.08;98.32;95707.66;4988920;28;20053;-79
2022/08/19 01:06:43;;;;;;;12.60;7.97;;;;;;;18.12;97.89;95705.75;4998159;28;20042;-80
2022/08/19 01:09:11;;;;;;;11.85;8.43;;;;;;;18.03;98.65;95716.28;4997150;28;20051;-80
2022/08/19 01:11:43;;;;;;;12.23;8.18;;;;;;;18.05;98.84;95724.94;4998031;28;20057;-79
2022/08/19 01:14:11;;;;;;;11.65;8.65;;;;;;;17.93;99.55;95735.09;4998185;28;20042;-79
2022/08/19 01:16:40;;;;;;;10.75;7.72;;;;;;;18.11;98.67;95728.94;4998972;28;20049;-79
2022/08/19 01:19:14;;;;;;;12.05;8.75;;;;;;;18.10;98.37;95732.88;4998516;28;20043;-78
2022/08/19 01:21:53;;;;;;;13.15;8.55;;;;;;;18.11;98.26;95731.69;4997189;28;20043;-78
2022/08/19 01:24:21;;;;;;;12.63;8.82;;;;;;;18.20;97.86;95729.41;4997125;28;20052;-80
2022/08/19 01:26:48;;;;;;;14.20;8.50;;;;;;;18.29;97.08;95729.88;4997719;28;20513;-80
2022/08/19 01:29:15;;;;;;;11.05;7.80;;;;;;;18.36;96.75;95724.41;5000315;28;20057;-81
2022/08/19 01:31:42;;;;;;;11.23;7.53;;;;;;;18.43;95.82;95729.19;4999842;28;20430;-80
2022/08/19 01:34:10;;;;;;;10.73;8.15;;;;;;;18.54;95.43;95715.47;4998431;28;20046;-81
2022/08/19 01:36:41;;;;;;;10.35;7.82;;;;;;;18.56;94.54;95724.13;4997772;28;20053;-79
2022/08/19 01:39:11;;;;;;;10.18;7.35;;;;;;;18.64;94.31;95723.00;4995173;28;20105;-79
2022/08/19 01:41:39;;;;;;;9.63;7.03;;;;;;;18.69;94.18;95730.94;4995681;28;20046;-80
2022/08/19 01:44:08;;;;;;;13.05;8.48;;;;;;;18.64;93.66;95750.59;4994840;28;20042;-81
2022/08/19 01:46:35;;;;;;;14.05;7.95;;;;;;;18.54;94.51;95748.56;4994111;28;20049;-80
2022/08/19 01:49:02;;;;;;;10.88;7.82;;;;;;;18.64;93.96;95740.34;4994560;28;20050;-80
2022/08/19 01:51:30;;;;;;;11.20;8.82;;;;;;;18.58;94.31;95752.88;4994035;28;20478;-79
2022/08/19 01:53:59;;;;;;;12.70;8.07;;;;;;;18.66;94.06;95762.00;4984671;28;20058;-79
2022/08/19 01:56:26;;;;;;;14.32;7.97;;;;;;;18.54;94.66;95768.63;4991935;28;20039;-79
2022/08/19 01:58:56;;;;;;;11.45;7.82;;;;;;;18.55;94.56;95770.22;4994051;28;20066;-80
2022/08/19 02:01:23;;;;;;;11.27;8.35;;;;;;;18.58;94.61;95774.16;4993443;28;20039;-80
2022/08/19 02:03:49;;;;;;;14.80;9.48;;;;;;;18.59;94.26;95773.00;4993863;28;20048;-79
2022/08/19 02:06:16;;;;;;;13.60;8.90;;;;;;;18.63;94.32;95776.56;4993105;28;20058;-80
2022/08/19 02:08:47;;;;;;;12.70;8.18;;;;;;;18.52;94.11;95765.47;4994779;28;20573;-81
2022/08/19 02:11:21;;;;;;;12.65;8.80;;;;;;;18.60;94.46;95760.78;4994352;28;20054;-80
2022/08/19 02:13:49;;;;;;;11.32;8.55;;;;;;;18.62;93.92;95748.19;4994105;28;20077;-82
2022/08/19 02:16:17;;;;;;;13.27;9.25;;;;;;;18.73;93.55;95756.56;4993041;28;20042;-80
2022/08/19 02:18:43;;;;;;;10.13;7.72;;;;;;;18.76;93.54;95758.56;4994337;28;20073;-81
2022/08/19 02:21:10;;;;;;;15.48;9.18;;;;;;;18.67;93.58;95767.13;4993083;28;20061;-81
2022/08/19 02:23:37;;;;;;;12.10;9.32;;;;;;;18.48;94.63;95765.47;4994033;28;20493;-81
2022/08/19 02:26:03;;;;;;;14.07;10.63;;;;;;;18.32;96.50;95767.66;4993199;28;20046;-80
2022/08/19 02:28:30;;;;;;;15.30;11.18;;;;;;;18.25;97.23;95756.59;4993350;28;20053;-81
2022/08/19 02:30:56;;;;;;;14.02;10.30;;;;;;;18.17;97.24;95766.78;4993380;28;20058;-81
2022/08/19 02:33:24;;;;;;;15.18;11.43;;;;;;;18.05;98.75;95763.53;4992583;28;20046;-81
2022/08/19 02:35:51;;;;;;;17.63;11.23;;;;;;;18.07;99.08;95775.75;4992721;28;20410;-81
2022/08/19 02:38:25;;;;;;;18.10;12.30;;;;;;;18.02;99.41;95769.81;4993264;28;20057;-81
2022/08/19 02:40:54;;;;;;;16.98;12.35;;;;;;;17.96;99.15;95781.19;4992702;28;20576;-80
2022/08/19 02:43:21;;;;;;;17.08;12.18;;;;;;;18.04;99.00;95778.47;4992527;28;20042;-80
2022/08/19 02:45:49;;;;;;;17.90;11.57;;;;;;;18.05;99.35;95769.03;4997093;28;20048;-81
2022/08/19 02:48:17;;;;;;;18.88;12.57;;;;;;;18.14;98.34;95761.25;4993745;28;20046;-81
2022/08/19 02:50:45;;;;;;;19.58;13.90;;;;;;;18.24;97.73;95749.50;4992435;28;20056;-80
2022/08/19 02:53:12;;;;;;;17.38;12.40;;;;;;;18.15;97.47;95743.53;4992641;28;20091;-81
2022/08/19 02:55:44;;;;;;;15.35;11.38;;;;;;;18.31;97.12;95746.00;4992498;28;20066;-80
2022/08/19 02:58:11;;;;;;;15.90;10.57;;;;;;;18.28;96.35;95738.53;4992203;28;20053;-80
2022/08/19 03:00:43;;;;;;;14.02;10.55;;;;;;;18.39;95.90;95734.66;4992542;28;20046;-82
2022/08/19 03:03:10;;;;;;;16.88;11.77;;;;;;;18.46;95.74;95723.69;4982284;28;20053;-80
2022/08/19 03:05:37;;;;;;;14.75;11.38;;;;;;;18.57;95.42;95725.72;4991642;28;20126;-81
2022/08/19 03:08:05;;;;;;;15.45;11.60;;;;;;;18.47;94.68;95741.78;4991828;28;20558;-80
2022/08/19 03:10:32;;;;;;;16.23;11.05;;;;;;;18.46;95.49;95745.72;4982805;28;20047;-81
2022/08/19 03:12:59;;;;;;;19.55;12.30;;;;;;;18.48;95.07;95737.88;4991391;28;20046;-80
2022/08/19 03:15:26;;;;;;;17.15;11.98;;;;;;;18.50;94.97;95732.75;4992268;28;20053;-80
2022/08/19 03:17:52;;;;;;;17.42;12.23;;;;;;;18.54;94.73;95740.28;4992283;28;20042;-80
2022/08/19 03:20:19;;;;;;;15.82;11.50;;;;;;;18.66;94.39;95731.69;4991617;28;20054;-81
2022/08/19 03:22:46;;;;;;;17.83;11.32;;;;;;;18.64;94.27;95739.56;4992203;28;20050;-81
2022/08/19 03:25:14;;;;;;;16.08;10.90;;;;;;;18.67;93.80;95736.00;4991654;28;20096;-80
2022/08/19 03:27:40;;;;;;;13.90;10.48;;;;;;;18.65;93.48;95738.38;5007113;28;20497;-81
2022/08/19 03:30:08;;;;;;;14.40;10.60;;;;;;;18.68;93.98;95740.38;4991552;28;20049;-79
2022/08/19 03:32:35;;;;;;;15.15;10.63;;;;;;;18.65;93.62;95744.69;4991762;28;20129;-80
2022/08/19 03:35:02;;;;;;;14.75;10.98;;;;;;;18.65;93.62;95754.91;4992371;28;20743;-81
2022/08/19 03:37:29;;;;;;;14.55;10.35;;;;;;;18.72;93.45;95753.00;4991657;28;20053;-80
2022/08/19 03:39:55;;;;;;;19.33;10.88;;;;;;;18.69;93.08;95758.53;4992465;28;20057;-81
2022/08/19 03:42:24;;;;;;;16.70;10.90;;;;;;;18.71;92.99;95761.69;4991754;28;20054;-81
2022/08/19 03:44:51;;;;;;;14.85;11.25;;;;;;;18.75;92.82;95774.31;4992114;28;20454;-81
2022/08/19 03:47:18;;;;;;;15.93;11.75;;;;;;;18.58;93.62;95774.94;4992043;28;20046;-80
2022/08/19 03:49:45;;;;;;;17.33;12.05;;;;;;;18.69;93.41;95770.34;4992301;28;20054;-81
2022/08/19 03:52:11;;;;;;;16.13;10.75;;;;;;;18.66;93.78;95775.81;4990964;28;20065;-80
2022/08/19 03:54:38;;;;;;;19.15;12.98;;;;;;;18.56;93.78;95771.00;4992223;28;20073;-81
2022/08/19 03:57:05;;;;;;;17.25;11.68;;;;;;;18.58;93.31;95768.66;4991993;28;20497;-81
2022/08/19 03:59:36;;;;;;;17.88;12.48;;;;;;;18.48;93.95;95775.69;4991752;28;20047;-80
2022/08/19 04:02:08;;;;;;;17.35;12.52;;;;;;;18.60;93.85;95769.06;4991286;28;20043;-80
2022/08/19 04:04:36;;;;;;;17.65;11.48;;;;;;;18.62;93.55;95772.22;4991498;28;20057;-80
2022/08/19 04:07:03;;;;;;;17.67;13.05;;;;;;;18.62;93.33;95766.72;4991313;28;20050;-79
2022/08/19 04:09:31;;;;;;;17.42;12.20;;;;;;;18.66;93.36;95773.03;4991651;28;20051;-81
2022/08/19 04:11:59;;;;;;;16.35;11.73;;;;;;;18.61;93.01;95770.66;4991847;28;20046;-81
2022/08/19 04:14:29;;;;;;;16.63;12.20;;;;;;;18.70;93.00;95766.41;4991513;28;20046;-81
2022/08/19 04:16:58;;;;;;;15.80;11.45;;;;;;;18.74;92.61;95750.69;4991489;28;20126;-80
2022/08/19 04:19:25;;;;;;;15.52;11.02;;;;;;;18.78;92.83;95745.94;4992224;28;20042;-81
2022/08/19 04:21:54;;;;;;;15.23;11.35;;;;;;;18.84;92.24;95757.41;4996830;28;20042;-80
2022/08/19 04:24:21;;;;;;;15.57;10.85;;;;;;;18.86;91.65;95746.78;4996374;28;20045;-80
2022/08/19 04:26:49;;;;;;;14.27;10.90;;;;;;;18.87;91.70;95753.88;4995081;28;20054;-80
2022/08/19 04:29:21;;;;;;;13.30;9.68;;;;;;;18.90;91.85;95758.66;4994614;28;20057;-81
2022/08/19 04:31:47;;;;;;;18.20;11.63;;;;;;;18.98;91.59;95754.72;4985163;28;20042;-81
2022/08/19 04:34:18;;;;;;;18.60;12.43;;;;;;;18.97;91.13;95753.16;4994663;28;20494;-81
2022/08/19 04:36:45;;;;;;;15.05;11.70;;;;;;;18.96;90.72;95762.63;4994761;28;20042;-80
2022/08/19 04:39:14;;;;;;;15.13;10.93;;;;;;;18.92;90.94;95772.03;4994968;28;20046;-81
2022/08/19 04:44:25;;;;;;;15.45;11.90;;;;;;;18.85;91.43;95788.56;4994180;28;20053;-80
2022/08/19 04:46:51;;;;;;;15.40;11.20;;;;;;;18.88;91.63;95788.56;4994758;28;20537;-80
2022/08/19 04:49:22;;;;;;;14.60;10.48;;;;;;;18.96;91.32;95778.38;4994455;28;20073;-81
2022/08/19 04:51:51;;;;;;;17.02;11.63;;;;;;;18.91;91.33;95787.81;4994572;28;20061;-80
2022/08/19 04:54:22;;;;;;;15.55;10.60;;;;;;;18.98;91.46;95787.84;4994128;28;20133;-81
2022/08/19 04:56:50;;;;;;;13.82;10.10;;;;;;;19.08;91.37;95791.03;4994844;28;20097;-81
2022/08/19 04:59:18;;;;;;;17.33;11.00;;;;;;;19.18;90.73;95795.81;4993962;28;20572;-80
2022/08/19 05:01:49;;;;;;;14.63;11.02;;;;;;;19.20;90.10;95793.47;4995940;28;20050;-80
2022/08/19 05:04:16;;;;;;;12.57;9.45;;;;;;;19.18;89.77;95795.81;4993865;28;20046;-80
2022/08/19 05:06:45;;;;;;;13.65;10.32;;;;;;;19.18;89.84;95804.09;4994333;28;20100;-81
2022/08/19 05:09:11;;;;;;;15.45;11.70;;;;;;;19.12;89.69;95803.69;4993639;28;20048;-80
2022/08/19 05:11:39;;;;;;;14.63;10.30;;;;;;;19.13;89.72;95801.72;4995037;28;20513;-80
2022/08/19 05:14:06;;;;;;;16.35;11.18;;;;;;;19.16;90.22;95809.22;4993774;28;20113;-81
2022/08/19 05:16:33;;;;;;;16.50;11.27;;;;;;;19.10;89.51;95822.59;4993822;28;20046;-81
2022/08/19 05:24:30;;;;;;;15.70;11.45;;;;;;;18.90;90.83;95824.84;4993162;28;20065;-81
2022/08/19 05:26:57;;;;;;;16.10;10.95;;;;;;;18.90;91.09;95824.84;4993628;28;20058;-81
2022/08/19 05:29:27;;;;;;;14.80;10.90;;;;;;;18.89;91.07;95823.25;4993580;28;20053;-81
2022/08/19 05:31:55;;;;;;;20.52;12.63;;;;;;;18.82;90.82;95823.22;4983400;28;20046;-81
2022/08/19 05:34:24;;;;;;;15.90;11.88;;;;;;;18.66;91.79;95830.97;4993143;28;20050;-81
2022/08/19 05:36:56;;;;;;;17.27;12.07;;;;;;;18.61;92.95;95817.53;4993156;28;20888;-81
2022/08/19 05:39:23;;;;;;;15.77;11.57;;;;;;;18.55;92.80;95814.34;4993101;28;20137;-81
2022/08/19 05:41:53;;;;;;;16.88;11.65;;;;;;;18.59;92.94;95814.38;4993201;28;20053;-77
2022/08/19 05:44:21;;;;;;;17.33;11.98;;;;;;;18.40;93.74;95807.91;4992318;28;20051;-77
2022/08/19 05:46:48;;;;;;;17.25;12.32;;;;;;;18.33;94.78;95805.09;4986550;28;20047;-78
2022/08/19 05:49:16;;;;;;;18.30;12.63;;;;;;;18.33;95.31;95802.34;4972609;28;20047;-77
2022/08/19 05:51:43;;;;;;;18.92;12.15;;;;;;;18.46;94.28;95800.88;4984645;28;20493;-78
2022/08/19 05:54:13;;;;;;;16.77;11.10;;;;;;;18.57;93.72;95800.16;4992077;28;20042;-78
2022/08/19 05:56:40;;;;;;;15.93;11.68;;;;;;;18.67;93.51;95799.44;4992240;28;20046;-77
2022/08/19 05:59:09;;;;;;;16.05;11.40;;;;;;;18.71;93.13;95805.81;4991776;28;20121;-77
2022/08/19 06:01:37;;;;;;;15.80;11.85;;;;;;;18.64;93.01;95805.75;4992193;28;20104;-78
2022/08/19 06:04:04;;;;;;;18.98;11.40;;;;;;;18.67;93.26;95804.97;4991803;28;20050;-76
2022/08/19 06:06:31;;;;;;;17.27;11.20;;;;;;;18.67;94.12;95796.69;4992320;28;20049;-76
2022/08/19 06:08:57;;;;;;;18.23;12.80;;;;;;;18.49;94.85;95794.59;4992282;28;20049;-79
2022/08/19 06:11:34;;;;;;;18.27;12.88;;;;;;;18.41;95.81;95797.69;4991443;28;20658;-78
2022/08/19 06:14:03;;;;;;;17.15;12.05;;;;;;;18.50;96.00;95804.44;4992020;28;20057;-77
2022/08/19 06:16:31;;;;;;;20.02;14.43;;;;;;;18.58;96.39;95801.72;4981951;28;20047;-77
2022/08/19 06:19:01;;;;;;;17.92;12.35;;;;;;;18.68;96.16;95803.81;4990932;28;20057;-77
2022/08/19 06:21:29;;;;;;;21.13;13.32;;;;;;;18.72;95.81;95802.66;4991673;28;20459;-78
2022/08/19 06:23:56;;;;;;;19.08;13.80;;;;;;;18.60;95.69;95800.19;4991767;28;20050;-77
2022/08/19 06:26:26;;;;;;;18.25;13.27;;;;;;;18.55;96.49;95808.03;4991262;28;20038;-77
2022/08/19 06:28:53;;;;;;;20.60;13.25;;;;;;;18.56;96.92;95812.38;4991554;28;20046;-77
2022/08/19 06:31:23;;;;;;;21.05;14.65;;;;;;;18.43;98.33;95811.88;4991094;28;20053;-77
2022/08/19 06:33:49;;;;;;;19.35;13.77;;;;;;;18.49;98.79;95802.09;4990705;28;20053;-77
2022/08/19 06:36:21;;;;;;;19.55;13.82;;;;;;;18.62;98.01;95802.56;4991102;28;20072;-77
2022/08/19 06:38:48;;;;;;;17.88;12.43;;;;;;;18.67;97.88;95799.44;4991398;28;20514;-78
2022/08/19 06:41:15;;;;;;;23.63;14.15;;;;;;;18.72;97.41;95799.13;4990542;28;20050;-77
2022/08/19 06:43:43;;;;;;;19.52;14.13;;;;;;;18.69;97.70;95797.13;4991384;28;20050;-78
2022/08/19 06:46:12;;;;;;;23.65;14.43;;;;;;;18.62;98.05;95808.84;4990979;28;20142;-77
2022/08/19 06:48:39;;;;;;;18.35;12.52;;;;;;;18.76;97.58;95803.47;4991298;28;20065;-77
2022/08/19 06:51:06;;;;;;;23.23;14.77;;;;;;;18.69;97.66;95813.69;4990799;28;20043;-77
2022/08/19 06:53:33;;;;;;;22.33;14.68;;;;;;;18.58;97.77;95813.56;4991327;28;20046;-76
2022/08/19 06:56:02;;;;;;;20.38;13.80;;;;;;;18.69;98.00;95819.19;4991171;28;20410;-78
2022/08/19 06:58:31;;;;;;;20.38;14.50;;;;;;;18.73;97.50;95820.00;4990917;28;20054;-77
2022/08/19 07:01:01;;;;;;;23.02;15.07;;;;;;;18.44;97.84;95824.50;4991162;28;20479;-77
2022/08/19 07:03:30;;;;;;;20.88;14.82;;;;;;;18.46;98.58;95817.41;4991127;28;20046;-77
2022/08/19 07:05:58;;;;;;;22.70;14.18;;;;;;;18.52;98.74;95821.38;4991333;28;20068;-76
2022/08/19 07:08:26;;;;;;;22.23;15.27;;;;;;;18.52;98.95;95826.91;4990538;28;20041;-76
2022/08/19 07:10:53;;;;;;;22.60;15.57;;;;;;;18.51;98.92;95819.81;4991009;28;20069;-78
2022/08/19 07:13:21;;;;;;;21.33;14.60;;;;;;;18.57;98.63;95823.00;4990829;28;20491;-76
2022/08/19 07:15:50;;;;;;;24.63;15.75;;;;;;;18.57;98.54;95813.94;4990949;28;20057;-76
2022/08/19 07:18:18;;;;;;;27.58;17.02;;;;;;;18.49;99.13;95815.88;4990223;28;20050;-76
2022/08/19 07:20:45;;;;;;;29.52;18.08;;;;;;;18.48;99.78;95823.34;4990795;28;20050;-76
2022/08/19 07:23:12;;;;;;;23.02;15.40;;;;;;;18.57;99.95;95819.47;4990450;28;20413;-77
2022/08/19 07:25:39;;;;;;;25.75;15.90;;;;;;;18.55;99.64;95808.81;4990870;28;20053;-75
2022/08/19 07:28:07;;;;;;;27.85;17.80;;;;;;;18.61;99.91;95803.72;4990359;28;20576;-75
2022/08/19 07:30:36;;;;;;;24.73;16.73;;;;;;;18.66;99.57;95797.88;4982548;28;20046;-76
2022/08/19 07:33:03;;;;;;;28.88;17.60;;;;;;;18.74;99.97;95791.22;4990394;28;20502;-77
2022/08/19 07:35:31;;;;;;;28.45;17.77;;;;;;;18.74;100.00;95782.97;4991032;28;20043;-76
2022/08/19 07:37:58;;;;;;;31.70;19.45;;;;;;;18.72;100.00;95774.28;4990512;28;20054;-76
2022/08/19 07:40:25;;;;;;;33.50;20.85;;;;;;;18.70;100.00;95776.66;4989901;28;20066;-76
2022/08/19 07:42:52;;;;;;;32.45;20.63;;;;;;;18.73;100.00;95765.63;4990534;28;20658;-76
2022/08/19 07:45:18;;;;;;;32.83;21.30;;;;;;;18.81;100.00;95766.47;4990084;28;20050;-76
2022/08/19 07:47:45;;;;;;;33.20;19.85;;;;;;;18.89;100.00;95767.28;4990590;28;20046;-76
2022/08/19 07:50:12;;;;;;;36.30;22.92;;;;;;;18.89;100.00;95779.09;4989684;28;20077;-75
2022/08/19 07:52:40;;;;;;;35.38;22.02;;;;;;;18.87;100.00;95770.44;4989327;28;20046;-75
2022/08/19 07:55:11;;;;;;;31.67;20.05;;;;;;;18.75;100.00;95768.00;4994060;28;20046;-76
2022/08/19 07:57:38;;;;;;;31.40;20.52;;;;;;;18.64;100.00;95772.66;4994242;28;20049;-76
2022/08/19 08:00:06;;;;;;;30.42;20.08;;;;;;;18.67;100.00;95780.13;4993759;28;20133;-76
2022/08/19 08:02:33;;;;;;;32.42;20.73;;;;;;;18.67;100.00;95766.34;4994461;28;20523;-75
2022/08/19 08:10:29;;;;;;;31.60;19.90;;;;;;;18.75;100.00;95768.00;4993940;28;20096;-76
2022/08/19 08:12:55;;;;;;;31.02;19.63;;;;;;;18.86;100.00;95752.31;4994088;28;20058;-76
2022/08/19 08:15:22;;;;;;;32.13;20.40;;;;;;;18.94;100.00;95753.13;4985537;28;20058;-77
2022/08/19 08:17:48;;;;;;;33.80;20.73;;;;;;;18.96;100.00;95743.31;4994131;28;20049;-77
2022/08/19 08:20:16;;;;;;;30.40;19.83;;;;;;;19.06;100.00;95739.00;4993610;28;20047;-76
2022/08/19 08:25:30;;;;;;;36.92;22.52;;;;;;;19.09;100.00;95754.00;4993348;28;20535;-76
2022/08/19 08:27:59;;;;;;;33.90;21.55;;;;;;;19.15;100.00;95763.47;4993889;28;20458;-76
2022/08/19 08:30:28;;;;;;;30.05;20.08;;;;;;;19.25;100.00;95768.25;4993463;28;20572;-75
2022/08/19 08:32:54;;;;;;;29.80;20.40;;;;;;;19.24;100.00;95788.75;4993714;28;20050;-75
2022/08/19 08:35:24;;;;;;;31.50;19.65;;;;;;;19.20;98.92;95782.41;4993120;28;20050;-77
2022/08/19 08:37:55;;;;;;;28.65;18.88;;;;;;;19.16;98.07;95798.16;4993556;28;20096;-76
2022/08/19 08:40:27;;;;;;;32.60;21.10;;;;;;;19.11;98.52;95807.63;4993157;28;20092;-78
2022/08/19 08:43:01;;;;;;;30.73;21.40;;;;;;;19.03;98.63;95804.03;4993968;28;20101;-76
2022/08/19 08:45:29;;;;;;;38.90;23.85;;;;;;;19.02;98.75;95810.72;4993477;28;20393;-76
2022/08/19 08:48:03;;;;;;;40.75;25.63;;;;;;;18.75;100.00;95810.19;4993614;28;20050;-77
2022/08/19 08:50:36;;;;;;;39.42;24.33;;;;;;;18.85;100.00;95816.94;4993086;28;20053;-76
2022/08/19 08:53:05;;;;;;;;;;;;;;;18.80;100.00;95825.56;4993106;28;20096;-75
2022/08/19 08:55:32;;;;;;;35.75;22.67;;;;;;;18.86;100.00;95821.28;4993603;28;19922;-76
2022/08/19 08:58:03;;;;;;;42.35;25.88;;;;;;;18.89;100.00;95820.50;4993366;28;20410;-77
2022/08/19 09:00:32;;;;;;;35.25;21.42;;;;;;;18.83;100.00;95816.50;4993299;28;20401;-76
2022/08/19 09:03:01;;;;;;;30.33;20.30;;;;;;;18.96;100.00;95822.53;4993234;28;20051;-75
2022/08/19 09:05:36;;;;;;;36.40;22.83;;;;;;;18.99;100.00;95819.75;4992436;28;20405;-75
2022/08/19 09:08:08;;;;;;;35.28;21.23;;;;;;;19.07;100.00;95822.59;4992802;28;20046;-76
2022/08/19 09:10:39;;;;;;;30.50;21.15;;;;;;;19.04;100.00;95824.91;4993178;28;20498;-75
2022/08/19 09:13:17;;;;;;;31.48;20.50;;;;;;;19.07;100.00;95828.91;4992804;28;20457;-78
2022/08/19 09:15:48;;;;;;;33.30;22.02;;;;;;;19.14;100.00;95830.91;4992974;28;20051;-77
2022/08/19 09:18:16;;;;;;;34.30;22.52;;;;;;;19.10;100.00;95830.06;4992310;28;20560;-77
2022/08/19 09:20:42;;;;;;;37.45;23.63;;;;;;;18.88;100.00;95838.22;4992542;28;20054;-78
2022/08/19 09:23:11;;;;;;;34.08;21.75;;;;;;;18.88;100.00;95835.47;4992432;28;20050;-77
2022/08/19 09:25:39;;;;;;;35.60;23.50;;;;;;;18.82;100.00;95834.25;4992747;28;20245;-78
2022/08/19 09:28:06;;;;;;;35.63;23.65;;;;;;;18.76;100.00;95830.28;4992375;28;20100;-77
2022/08/19 09:30:39;;;;;;;37.58;23.58;;;;;;;18.71;100.00;95836.94;4991589;28;20054;-77
2022/08/19 09:33:06;;;;;;;35.60;23.25;;;;;;;18.67;100.00;95832.53;4992229;28;20445;-78
2022/08/19 09:35:33;;;;;;;37.05;22.42;;;;;;;18.66;100.00;95836.47;4992862;28;20553;-77
2022/08/19 09:38:00;;;;;;;39.88;24.52;;;;;;;18.70;100.00;95837.31;4992449;28;20134;-79
2022/08/19 09:40:29;;;;;;;41.92;25.33;;;;;;;18.65;100.00;95826.63;4992333;28;20054;-79
2022/08/19 09:42:56;;;;;;;41.22;24.48;;;;;;;18.65;100.00;95837.66;4992751;28;20054;-78
2022/08/19 09:45:23;;;;;;;40.67;24.55;;;;;;;18.56;100.00;95837.19;4992053;28;20049;-78
2022/08/19 09:47:51;;;;;;;41.60;24.67;;;;;;;18.63;100.00;95831.72;4992490;28;20054;-78
2022/08/19 09:50:18;;;;;;;42.17;25.23;;;;;;;18.70;100.00;95831.81;4991951;28;20101;-78
2022/08/19 09:52:45;;;;;;;38.05;23.67;;;;;;;18.76;100.00;95830.28;4992409;28;20046;-77
2022/08/19 09:55:12;;;;;;;33.42;22.15;;;;;;;18.76;100.00;95824.75;4991917;28;20617;-78
2022/08/19 09:57:40;;;;;;;33.17;21.45;;;;;;;18.82;100.00;95823.22;4992375;28;20061;-77
2022/08/19 10:00:09;;;;;;;36.55;21.48;;;;;;;18.92;100.00;95822.50;4991971;28;20046;-78
2022/08/19 10:02:37;;;;;;;38.88;25.55;;;;;;;18.92;100.00;95822.50;4992024;28;20050;-77
2022/08/19 10:07:47;;;;;;;33.22;22.70;;;;;;;19.00;100.00;95829.66;4992106;28;20064;-77
2022/08/19 10:10:15;;;;;;;33.72;23.27;;;;;;;19.02;100.00;95826.50;4991793;28;20046;-78
2022/08/19 10:12:47;;;;;;;36.58;23.95;;;;;;;18.97;100.00;95835.94;4992063;28;20116;-76
2022/08/19 10:15:14;;;;;;;30.23;20.30;;;;;;;19.09;100.00;95836.78;4991462;28;20501;-78
2022/08/19 10:17:41;;;;;;;33.72;22.52;;;;;;;19.12;100.00;95830.50;4990947;28;20049;-81
2022/08/19 10:20:08;;;;;;;34.40;22.88;;;;;;;19.14;100.00;95833.66;4991286;28;20651;-76
2022/08/19 10:22:37;;;;;;;31.77;20.15;;;;;;;19.25;100.00;95845.53;4991834;28;20054;-76
2022/08/19 10:25:05;;;;;;;32.65;21.52;;;;;;;19.24;100.00;95838.44;4991217;28;20046;-75
2022/08/19 10:27:32;;;;;;;32.95;21.23;;;;;;;19.24;100.00;95849.47;4991794;28;20608;-77
2022/08/19 10:29:59;;;;;;;32.30;21.83;;;;;;;19.26;100.00;95844.34;4991773;28;20057;-76
2022/08/19 10:32:26;;;;;;;37.65;23.08;;;;;;;19.24;100.00;95843.97;4991217;28;20414;-77
2022/08/19 10:34:52;;;;;;;36.75;23.10;;;;;;;19.32;100.00;95833.75;4991429;28;20050;-78
2022/08/19 10:37:19;;;;;;;39.38;26.15;;;;;;;19.39;100.00;95834.56;4991035;28;20046;-77
2022/08/19 10:39:47;;;;;;;41.20;25.60;;;;;;;19.43;100.00;95827.09;4991217;28;20042;-76
2022/08/19 10:42:15;;;;;;;42.45;26.20;;;;;;;19.36;100.00;95818.78;4991313;28;20047;-79
2022/08/19 10:44:43;;;;;;;38.35;24.85;;;;;;;19.35;100.00;95819.16;4991543;28;20058;-79
2022/08/19 10:47:11;;;;;;;38.03;25.15;;;;;;;19.38;100.00;95824.72;4990952;28;20065;-79
2022/08/19 10:52:33;;;;;;;36.40;24.45;;;;;;;19.49;100.00;95831.06;4991426;28;20046;-79
2022/08/19 10:52:33;;;;;;;39.25;25.33;;;;;;;19.61;100.00;95816.13;4990747;28;20460;-79
2022/08/19 10:57:44;;;;;;;35.30;24.35;;;;;;;19.55;100.00;95820.44;4991447;28;20418;-80
2022/08/19 11:00:13;;;;;;;39.45;25.45;;;;;;;19.55;98.72;95814.91;4990735;28;20053;-79
2022/08/19 11:02:42;;;;;;;34.97;21.50;;;;;;;19.66;96.71;95814.97;4991616;28;20462;-79
2022/08/19 11:05:10;;;;;;;38.20;25.08;;;;;;;19.63;98.10;95801.94;4991114;28;20046;-80
2022/08/19 11:07:37;;;;;;;36.30;23.70;;;;;;;19.63;98.68;95810.22;4993388;28;20050;-79
2022/08/19 11:10:04;;;;;;;34.30;23.13;;;;;;;19.67;97.90;95799.97;4992165;28;20133;-78
2022/08/19 11:12:32;;;;;;;39.28;24.17;;;;;;;19.77;96.31;95796.44;4991330;28;20050;-79
2022/08/19 11:14:59;;;;;;;33.55;22.02;;;;;;;19.93;96.81;95802.41;4991710;28;20570;-79
2022/08/19 11:17:25;;;;;;;39.70;25.05;;;;;;;19.90;95.93;95803.22;4991286;28;20046;-79
2022/08/19 11:19:53;;;;;;;35.47;23.25;;;;;;;20.00;97.48;95801.66;4991650;28;20054;-80
2022/08/19 11:22:20;;;;;;;37.05;23.75;;;;;;;19.97;94.31;95803.22;4992548;28;20540;-78
2022/08/19 11:24:46;;;;;;;36.80;23.52;;;;;;;20.11;95.06;95804.44;4993111;28;20054;-80
2022/08/19 11:27:14;;;;;;;34.22;21.70;;;;;;;20.17;94.71;95805.63;4991022;28;20046;-79
2022/08/19 11:29:40;;;;;;;34.72;21.35;;;;;;;20.27;95.10;95804.84;4992359;28;20050;-79
2022/08/19 11:32:11;;;;;;;34.60;22.52;;;;;;;20.26;93.83;95801.28;4991287;28;20141;-79
2022/08/19 11:34:37;;;;;;;35.13;22.15;;;;;;;20.22;92.48;95796.94;4992483;28;20049;-78
2022/08/19 11:37:08;;;;;;;36.25;24.63;;;;;;;20.21;93.05;95789.81;4991743;28;20042;-80
2022/08/19 11:39:36;;;;;;;38.65;23.80;;;;;;;20.37;93.93;95784.69;4991490;28;20129;-79
2022/08/19 11:42:54;;;;;;;34.20;21.90;;;;;;;20.52;93.60;95783.53;4980385;28;20047;-79